createdAt,value
2019-05-09T00:01:16.407Z,61.83
2019-05-09T00:03:44.490Z,61.84
2019-05-09T00:06:10.608Z,61.85
2019-05-09T00:08:36.598Z,61.84
2019-05-09T00:11:03.669Z,61.73
2019-05-09T00:13:29.898Z,61.86
2019-05-09T00:15:55.751Z,61.92
2019-05-09T00:18:23.326Z,61.89
2019-05-09T00:20:51.395Z,61.86
2019-05-09T00:23:17.342Z,61.97
2019-05-09T00:25:43.381Z,62.02
2019-05-09T00:28:09.472Z,61.95
2019-05-09T00:30:55.262Z,61.94
2019-05-09T00:33:23.586Z,61.91
2019-05-09T00:35:49.470Z,61.94
2019-05-09T00:38:16.188Z,61.91
2019-05-09T00:40:55.351Z,61.98
2019-05-09T00:43:10.021Z,61.95
2019-05-09T00:45:54.624Z,61.95
2019-05-09T00:48:23.057Z,61.91
2019-05-09T00:50:49.115Z,61.90
2019-05-09T00:53:15.074Z,61.86
2019-05-09T00:55:40.923Z,61.84
2019-05-09T00:58:06.783Z,62.11
2019-05-09T01:00:33.384Z,62.24
2019-05-09T01:02:59.293Z,62.25
2019-05-09T01:05:25.176Z,62.18
2019-05-09T01:07:51.169Z,62.18
2019-05-09T01:10:17.037Z,62.17
2019-05-09T01:12:43.558Z,62.22
2019-05-09T01:15:10.173Z,62.34
2019-05-09T01:17:36.147Z,62.33
2019-05-09T01:20:03.459Z,62.25
2019-05-09T01:22:29.615Z,62.35
2019-05-09T01:24:55.560Z,62.23
2019-05-09T01:27:23.318Z,62.24
2019-05-09T01:29:49.349Z,62.22
2019-05-09T01:32:23.691Z,62.36
2019-05-09T01:34:49.782Z,62.59
2019-05-09T01:37:15.653Z,62.61
2019-05-09T01:39:44.070Z,62.50
2019-05-09T01:42:10.115Z,62.42
2019-05-09T01:44:35.991Z,62.46
2019-05-09T01:47:03.750Z,62.47
2019-05-09T01:49:29.778Z,62.40
2019-05-09T01:51:55.662Z,62.42
2019-05-09T01:54:23.700Z,62.43
2019-05-09T01:56:49.854Z,62.28
2019-05-09T01:59:15.828Z,62.25
2019-05-09T02:01:43.432Z,62.24
2019-05-09T02:04:09.522Z,62.31
2019-05-09T02:06:35.401Z,62.34
2019-05-09T02:09:03.391Z,62.35
2019-05-09T02:11:40.136Z,62.37
2019-05-09T02:13:56.951Z,62.37
2019-05-09T02:16:39.642Z,62.34
2019-05-09T02:19:25.682Z,62.36
2019-05-09T02:21:53.133Z,62.25
2019-05-09T02:24:19.143Z,62.18
2019-05-09T02:26:44.992Z,62.15
2019-05-09T02:29:13.660Z,62.18
2019-05-09T02:31:39.376Z,62.18
2019-05-09T02:34:05.323Z,62.19
2019-05-09T02:36:31.333Z,62.15
2019-05-09T02:38:59.072Z,62.16
2019-05-09T02:41:25.019Z,62.12
2019-05-09T02:43:51.070Z,62.06
2019-05-09T02:46:21.698Z,61.98
2019-05-09T02:48:49.457Z,62.01
2019-05-09T02:51:18.170Z,62.06
2019-05-09T02:53:43.276Z,62.00
2019-05-09T02:56:09.531Z,61.91
2019-05-09T02:58:38.798Z,61.89
2019-05-09T03:01:21.723Z,62.03
2019-05-09T03:03:48.345Z,62.06
2019-05-09T03:06:14.324Z,62.06
2019-05-09T03:08:40.299Z,62.03
2019-05-09T03:11:09.373Z,62.09
2019-05-09T03:13:34.041Z,62.04
2019-05-09T03:16:01.838Z,62.02
2019-05-09T03:18:28.753Z,62.08
2019-05-09T03:20:58.528Z,62.10
2019-05-09T03:23:24.350Z,62.13
2019-05-09T03:25:50.379Z,62.08
2019-05-09T03:28:24.152Z,62.04
2019-05-09T03:31:01.111Z,61.99
2019-05-09T03:33:29.536Z,61.93
2019-05-09T03:35:54.798Z,61.84
2019-05-09T03:38:20.906Z,61.86
2019-05-09T03:40:47.695Z,61.87
2019-05-09T03:43:13.692Z,61.83
2019-05-09T03:45:58.588Z,61.71
2019-05-09T03:48:28.934Z,61.78
2019-05-09T03:50:54.794Z,61.79
2019-05-09T03:53:20.875Z,61.76
2019-05-09T03:55:47.547Z,61.76
2019-05-09T03:58:18.533Z,61.69
2019-05-09T04:00:47.945Z,61.71
2019-05-09T04:03:13.808Z,61.67
2019-05-09T04:05:39.771Z,61.60
2019-05-09T04:08:20.834Z,61.63
2019-05-09T04:10:50.697Z,61.70
2019-05-09T04:13:17.982Z,62.07
2019-05-09T04:15:44.258Z,62.86
2019-05-09T04:18:10.221Z,63.17
2019-05-09T04:20:37.715Z,62.99
2019-05-09T04:23:03.845Z,62.95
2019-05-09T04:25:31.630Z,62.96
2019-05-09T04:27:58.316Z,62.83
2019-05-09T04:30:24.377Z,62.95
2019-05-09T04:32:50.237Z,62.82
2019-05-09T04:35:17.524Z,63.50
2019-05-09T04:37:43.583Z,63.05
2019-05-09T04:40:09.723Z,63.20
2019-05-09T04:42:43.018Z,63.22
2019-05-09T04:45:22.291Z,63.11
2019-05-09T04:47:48.186Z,62.99
2019-05-09T04:50:15.371Z,63.88
2019-05-09T04:52:41.993Z,63.53
2019-05-09T04:55:08.765Z,63.71
2019-05-09T04:57:34.768Z,63.68
2019-05-09T05:00:00.806Z,64.29
2019-05-09T05:02:34.455Z,63.68
2019-05-09T05:05:00.348Z,63.30
2019-05-09T05:07:28.541Z,64.13
2019-05-09T05:09:54.019Z,63.92
2019-05-09T05:12:20.013Z,64.70
2019-05-09T05:14:47.576Z,65.14
2019-05-09T05:17:13.747Z,64.08
2019-05-09T05:19:39.601Z,64.59
2019-05-09T05:22:07.591Z,64.66
2019-05-09T05:24:38.040Z,64.26
2019-05-09T05:27:03.159Z,64.94
2019-05-09T05:29:29.192Z,64.19
2019-05-09T05:31:57.506Z,65.22
2019-05-09T05:34:31.092Z,65.74
2019-05-09T05:36:58.228Z,65.44
2019-05-09T05:39:24.129Z,64.77
2019-05-09T05:41:50.174Z,64.75
2019-05-09T05:44:17.813Z,64.28
2019-05-09T05:46:50.419Z,64.86
2019-05-09T05:49:15.659Z,65.01
2019-05-09T05:51:50.295Z,64.82
2019-05-09T05:54:18.130Z,64.93
2019-05-09T05:56:44.198Z,65.13
2019-05-09T05:59:10.052Z,64.83
2019-05-09T06:01:38.176Z,65.38
2019-05-09T06:04:03.768Z,64.75
2019-05-09T06:06:32.829Z,64.63
2019-05-09T06:08:58.047Z,64.56
2019-05-09T06:11:24.011Z,64.48
2019-05-09T06:13:56.968Z,64.90
2019-05-09T06:16:19.138Z,64.40
2019-05-09T06:18:47.530Z,64.51
2019-05-09T06:21:13.313Z,65.34
2019-05-09T06:23:39.384Z,64.83
2019-05-09T06:26:09.421Z,64.53
2019-05-09T06:28:33.029Z,64.75
2019-05-09T06:30:59.115Z,64.69
2019-05-09T06:33:25.078Z,64.46
2019-05-09T06:35:50.942Z,64.35
2019-05-09T06:38:18.712Z,64.27
2019-05-09T06:40:44.695Z,64.55
2019-05-09T06:43:18.331Z,64.60
2019-05-09T06:46:01.387Z,64.93
2019-05-09T06:48:28.396Z,64.71
2019-05-09T06:50:54.359Z,64.65
2019-05-09T06:53:20.498Z,64.28
2019-05-09T06:55:47.584Z,64.41
2019-05-09T06:58:32.996Z,64.13
2019-05-09T07:01:01.007Z,64.15
2019-05-09T07:03:48.039Z,64.58
2019-05-09T07:06:17.766Z,64.58
2019-05-09T07:09:00.410Z,64.28
2019-05-09T07:11:27.575Z,64.60
2019-05-09T07:13:53.442Z,64.20
2019-05-09T07:16:19.543Z,64.14
2019-05-09T07:18:48.485Z,64.23
2019-05-09T07:21:14.262Z,64.33
2019-05-09T07:23:40.490Z,64.22
2019-05-09T07:26:10.881Z,64.04
2019-05-09T07:28:37.667Z,63.95
2019-05-09T07:31:07.724Z,63.75
2019-05-09T07:33:41.618Z,64.17
2019-05-09T07:36:08.535Z,64.05
2019-05-09T07:38:34.539Z,64.46
2019-05-09T07:41:00.568Z,64.40
2019-05-09T07:43:28.216Z,64.39
2019-05-09T07:46:03.968Z,64.76
2019-05-09T07:48:30.176Z,65.04
2019-05-09T07:50:59.559Z,65.20
2019-05-09T07:53:23.817Z,64.72
2019-05-09T07:55:49.771Z,65.11
2019-05-09T07:58:18.430Z,65.28
2019-05-09T08:00:43.285Z,65.57
2019-05-09T08:03:13.086Z,65.49
2019-05-09T08:05:38.516Z,65.53
2019-05-09T08:08:08.017Z,65.49
2019-05-09T08:10:34.225Z,65.56
2019-05-09T08:13:00.193Z,65.74
2019-05-09T08:15:28.029Z,65.61
2019-05-09T08:17:53.969Z,65.17
2019-05-09T08:20:19.830Z,65.58
2019-05-09T08:22:52.237Z,65.64
2019-05-09T08:25:13.699Z,65.41
2019-05-09T08:27:39.539Z,65.43
2019-05-09T08:30:07.965Z,65.41
2019-05-09T08:32:33.807Z,65.27
2019-05-09T08:34:59.670Z,65.06
2019-05-09T08:37:28.067Z,64.96
2019-05-09T08:39:53.330Z,64.79
2019-05-09T08:42:20.094Z,64.74
2019-05-09T08:44:48.102Z,64.82
2019-05-09T08:47:14.143Z,64.91
2019-05-09T08:49:46.510Z,64.64
2019-05-09T08:52:16.378Z,64.81
2019-05-09T08:54:43.623Z,64.37
2019-05-09T08:57:09.681Z,64.33
2019-05-09T08:59:38.068Z,64.27
2019-05-09T09:02:14.946Z,64.29
2019-05-09T09:04:33.096Z,64.25
2019-05-09T09:06:58.931Z,64.15
2019-05-09T09:09:25.050Z,63.92
2019-05-09T09:11:50.918Z,63.60
2019-05-09T09:14:18.481Z,63.46
2019-05-09T09:16:44.559Z,63.29
2019-05-09T09:19:11.749Z,63.18
2019-05-09T09:21:38.869Z,63.06
2019-05-09T09:24:05.124Z,62.81
2019-05-09T09:26:31.097Z,62.45
2019-05-09T09:28:57.793Z,62.04
2019-05-09T09:31:23.969Z,61.23
2019-05-09T09:33:49.831Z,61.29
2019-05-09T09:36:17.770Z,61.00
2019-05-09T09:38:43.480Z,60.81
2019-05-09T09:41:09.343Z,60.52
2019-05-09T09:43:35.256Z,59.58
2019-05-09T09:46:10.440Z,59.44
2019-05-09T09:48:29.065Z,58.62
2019-05-09T09:50:55.030Z,58.19
2019-05-09T09:53:21.188Z,57.96
2019-05-09T09:55:47.599Z,56.52
2019-05-09T09:58:13.702Z,56.93
2019-05-09T10:00:58.538Z,55.93
2019-05-09T10:03:24.662Z,55.90
2019-05-09T10:05:50.874Z,55.59
2019-05-09T10:08:18.119Z,55.38
2019-05-09T10:10:44.207Z,55.73
2019-05-09T10:13:10.909Z,55.77
2019-05-09T10:15:44.537Z,55.70
2019-05-09T10:18:28.733Z,56.32
2019-05-09T10:21:13.191Z,56.52
2019-05-09T10:23:39.142Z,56.68
2019-05-09T10:26:05.124Z,56.00
2019-05-09T10:28:31.188Z,55.85
2019-05-09T10:30:57.786Z,54.98
2019-05-09T10:33:23.803Z,55.08
2019-05-09T10:35:49.961Z,55.31
2019-05-09T10:38:18.188Z,55.05
2019-05-09T10:40:43.485Z,55.28
2019-05-09T10:43:34.659Z,52.99
2019-05-09T10:46:09.503Z,53.56
2019-05-09T10:48:35.692Z,53.48
2019-05-09T10:51:05.142Z,53.67
2019-05-09T10:53:29.345Z,54.03
2019-05-09T10:55:55.311Z,53.82
2019-05-09T10:58:23.806Z,53.67
2019-05-09T11:00:49.138Z,53.82
2019-05-09T11:03:15.014Z,53.11
2019-05-09T11:05:41.104Z,51.77
2019-05-09T11:08:08.193Z,52.28
2019-05-09T11:10:34.253Z,52.22
2019-05-09T11:13:00.313Z,50.62
2019-05-09T11:15:26.155Z,50.46
2019-05-09T11:17:52.028Z,49.72
2019-05-09T11:20:19.443Z,49.00
2019-05-09T11:22:45.537Z,49.14
2019-05-09T11:25:11.520Z,50.28
2019-05-09T11:27:38.920Z,49.21
2019-05-09T11:30:05.087Z,49.14
2019-05-09T11:32:32.851Z,49.48
2019-05-09T11:34:58.987Z,49.11
2019-05-09T11:37:24.940Z,48.55
2019-05-09T11:39:50.820Z,48.41
2019-05-09T11:42:17.793Z,48.91
2019-05-09T11:44:43.760Z,48.28
2019-05-09T11:47:27.079Z,49.57
2019-05-09T11:49:39.025Z,49.50
2019-05-09T11:52:05.191Z,49.28
2019-05-09T11:54:31.097Z,49.54
2019-05-09T11:56:57.700Z,47.90
2019-05-09T11:59:23.599Z,47.55
2019-05-09T12:01:50.708Z,46.32
2019-05-09T12:04:18.813Z,46.41
2019-05-09T12:06:44.801Z,47.03
2019-05-09T12:09:14.113Z,46.36
2019-05-09T12:11:43.432Z,46.82
2019-05-09T12:14:08.728Z,47.33
2019-05-09T12:16:33.957Z,46.52
2019-05-09T12:18:59.971Z,46.00
2019-05-09T12:21:28.210Z,45.73
2019-05-09T12:23:54.751Z,44.49
2019-05-09T12:26:20.801Z,44.78
2019-05-09T12:28:48.453Z,45.43
2019-05-09T12:31:14.438Z,45.92
2019-05-09T12:33:40.554Z,45.91
2019-05-09T12:36:09.069Z,46.05
2019-05-09T12:38:34.183Z,46.06
2019-05-09T12:41:00.704Z,45.79
2019-05-09T12:43:28.340Z,46.08
2019-05-09T12:45:54.256Z,46.44
2019-05-09T12:48:20.385Z,45.38
2019-05-09T12:50:48.671Z,44.98
2019-05-09T12:53:13.929Z,44.51
2019-05-09T12:55:39.946Z,44.34
2019-05-09T12:58:09.752Z,43.64
2019-05-09T13:00:35.500Z,43.00
2019-05-09T13:03:01.601Z,43.33
2019-05-09T13:05:27.535Z,42.39
2019-05-09T13:07:53.391Z,42.92
2019-05-09T13:10:19.689Z,41.93
2019-05-09T13:12:48.052Z,41.02
2019-05-09T13:15:13.413Z,41.92
2019-05-09T13:17:41.381Z,41.21
2019-05-09T13:20:09.200Z,41.12
2019-05-09T13:22:37.055Z,42.27
2019-05-09T13:25:04.567Z,42.46
2019-05-09T13:27:30.445Z,42.07
2019-05-09T13:29:56.422Z,41.46
2019-05-09T13:32:22.623Z,40.57
2019-05-09T13:34:48.840Z,41.25
2019-05-09T13:37:14.862Z,41.44
2019-05-09T13:39:41.217Z,41.49
2019-05-09T13:42:08.194Z,39.98
2019-05-09T13:44:34.227Z,40.72
2019-05-09T13:47:00.276Z,40.76
2019-05-09T13:49:28.451Z,41.17
2019-05-09T13:52:00.311Z,41.25
2019-05-09T13:54:21.762Z,39.71
2019-05-09T13:56:55.002Z,39.43
2019-05-09T13:59:15.557Z,39.91
2019-05-09T14:01:41.618Z,39.77
2019-05-09T14:04:08.047Z,38.36
2019-05-09T14:06:34.115Z,37.60
2019-05-09T14:09:00.149Z,37.25
2019-05-09T14:11:28.881Z,37.08
2019-05-09T14:13:53.780Z,36.84
2019-05-09T14:16:22.336Z,36.52
2019-05-09T14:18:48.587Z,37.58
2019-05-09T14:21:14.683Z,38.00
2019-05-09T14:23:51.416Z,38.02
2019-05-09T14:26:09.412Z,38.73
2019-05-09T14:28:35.489Z,38.03
2019-05-09T14:31:01.518Z,38.49
2019-05-09T14:33:29.502Z,38.64
2019-05-09T14:35:55.078Z,37.20
2019-05-09T14:38:21.130Z,38.26
2019-05-09T14:40:47.492Z,37.88
2019-05-09T14:43:13.613Z,38.83
2019-05-09T14:45:39.724Z,37.20
2019-05-09T14:48:07.949Z,37.44
2019-05-09T14:50:33.358Z,37.39
2019-05-09T14:52:59.325Z,36.42
2019-05-09T14:55:25.300Z,37.08
2019-05-09T14:57:51.207Z,37.90
2019-05-09T15:00:18.825Z,38.24
2019-05-09T15:02:44.895Z,38.08
2019-05-09T15:05:10.875Z,38.19
2019-05-09T15:07:38.910Z,38.77
2019-05-09T15:10:04.959Z,38.73
2019-05-09T15:12:30.956Z,38.62
2019-05-09T15:14:57.757Z,39.19
2019-05-09T15:17:23.738Z,38.58
2019-05-09T15:19:59.978Z,38.75
2019-05-09T15:22:17.566Z,39.32
2019-05-09T15:24:43.477Z,39.42
2019-05-09T15:27:09.458Z,40.21
2019-05-09T15:29:35.483Z,40.45
2019-05-09T15:32:06.007Z,40.08
2019-05-09T15:34:29.239Z,40.28
2019-05-09T15:36:57.978Z,40.35
2019-05-09T15:39:23.146Z,40.41
2019-05-09T15:41:49.050Z,40.72
2019-05-09T15:44:15.203Z,40.81
2019-05-09T15:46:43.039Z,40.88
2019-05-09T15:49:08.916Z,41.08
2019-05-09T15:51:34.895Z,41.40
2019-05-09T15:54:00.928Z,41.43
2019-05-09T15:56:28.803Z,41.32
2019-05-09T15:58:54.705Z,41.76
2019-05-09T16:01:20.667Z,42.02
2019-05-09T16:03:48.628Z,42.01
2019-05-09T16:06:14.397Z,41.84
2019-05-09T16:08:40.250Z,42.23
2019-05-09T16:11:08.548Z,42.42
2019-05-09T16:13:34.031Z,42.66
2019-05-09T16:15:59.895Z,42.51
2019-05-09T16:18:28.624Z,42.68
2019-05-09T16:20:53.731Z,42.64
2019-05-09T16:23:19.699Z,42.66
2019-05-09T16:25:47.407Z,42.47
2019-05-09T16:28:13.573Z,42.34
2019-05-09T16:30:39.439Z,42.79
2019-05-09T16:33:07.918Z,43.14
2019-05-09T16:35:33.188Z,43.13
2019-05-09T16:38:06.457Z,42.96
2019-05-09T16:40:27.950Z,43.15
2019-05-09T16:42:54.031Z,43.34
2019-05-09T16:45:19.983Z,43.54
2019-05-09T16:47:48.260Z,43.33
2019-05-09T16:50:14.360Z,43.53
2019-05-09T16:52:43.534Z,43.22
2019-05-09T16:55:09.908Z,42.71
2019-05-09T16:57:37.669Z,42.88
2019-05-09T17:00:10.122Z,43.25
2019-05-09T17:02:38.149Z,42.93
2019-05-09T17:05:04.608Z,42.75
2019-05-09T17:07:30.582Z,42.78
2019-05-09T17:09:57.788Z,43.25
2019-05-09T17:12:24.005Z,43.36
2019-05-09T17:14:49.899Z,43.45
2019-05-09T17:17:17.871Z,43.51
2019-05-09T17:19:43.771Z,43.60
2019-05-09T17:22:11.608Z,43.00
2019-05-09T17:24:38.431Z,43.32
2019-05-09T17:27:04.558Z,43.39
2019-05-09T17:29:30.558Z,43.75
2019-05-09T17:31:58.462Z,43.86
2019-05-09T17:34:24.470Z,44.24
2019-05-09T17:36:50.423Z,44.37
2019-05-09T17:39:18.494Z,44.55
2019-05-09T17:41:44.357Z,44.24
2019-05-09T17:44:10.317Z,44.51
2019-05-09T17:46:38.502Z,44.60
2019-05-09T17:49:04.153Z,44.64
2019-05-09T17:51:34.063Z,44.69
2019-05-09T17:53:58.471Z,44.88
2019-05-09T17:56:24.530Z,44.94
2019-05-09T17:58:50.527Z,44.68
2019-05-09T18:01:18.063Z,44.95
2019-05-09T18:03:44.203Z,45.08
2019-05-09T18:06:10.084Z,45.16
2019-05-09T18:08:37.706Z,45.25
2019-05-09T18:11:03.837Z,45.30
2019-05-09T18:13:31.569Z,45.33
2019-05-09T18:15:57.392Z,45.46
2019-05-09T18:18:23.423Z,45.55
2019-05-09T18:20:49.392Z,45.65
2019-05-09T18:23:17.474Z,45.62
2019-05-09T18:25:43.155Z,45.55
2019-05-09T18:28:09.121Z,45.58
2019-05-09T18:30:35.101Z,45.80
2019-05-09T18:33:08.691Z,45.80
2019-05-09T18:35:34.745Z,45.89
2019-05-09T18:38:00.743Z,45.97
2019-05-09T18:40:28.162Z,45.96
2019-05-09T18:42:54.204Z,46.06
2019-05-09T18:45:21.834Z,46.00
2019-05-09T18:47:48.247Z,45.95
2019-05-09T18:50:14.589Z,46.15
2019-05-09T18:52:40.551Z,46.16
2019-05-09T18:55:10.546Z,46.18
2019-05-09T18:57:36.467Z,46.16
2019-05-09T19:00:06.722Z,46.27
2019-05-09T19:02:32.922Z,46.35
2019-05-09T19:04:58.767Z,46.44
2019-05-09T19:07:26.912Z,46.46
2019-05-09T19:09:52.889Z,46.48
2019-05-09T19:12:18.828Z,46.42
2019-05-09T19:14:48.402Z,46.45
2019-05-09T19:17:31.088Z,46.59
2019-05-09T19:20:07.486Z,46.57
2019-05-09T19:22:33.439Z,46.57
2019-05-09T19:24:59.291Z,46.71
2019-05-09T19:27:25.164Z,46.82
2019-05-09T19:29:51.188Z,47.09
2019-05-09T19:32:17.011Z,47.12
2019-05-09T19:34:42.982Z,47.30
2019-05-09T19:37:09.036Z,47.63
2019-05-09T19:39:34.900Z,47.71
2019-05-09T19:42:00.865Z,47.64
2019-05-09T19:44:26.914Z,47.91
2019-05-09T19:46:54.680Z,47.96
2019-05-09T19:49:20.676Z,48.02
2019-05-09T19:51:46.797Z,48.56
2019-05-09T19:54:12.661Z,48.64
2019-05-09T19:56:39.467Z,48.99
2019-05-09T19:59:07.851Z,48.92
2019-05-09T20:01:33.211Z,48.85
2019-05-09T20:03:59.292Z,48.77
2019-05-09T20:06:25.305Z,49.11
2019-05-09T20:08:51.179Z,49.21
2019-05-09T20:11:21.611Z,49.20
2019-05-09T20:13:58.136Z,49.17
2019-05-09T20:16:24.694Z,49.52
2019-05-09T20:18:50.526Z,49.43
2019-05-09T20:21:16.607Z,49.95
2019-05-09T20:23:42.623Z,49.75
2019-05-09T20:26:08.539Z,49.85
2019-05-09T20:28:34.594Z,49.78
2019-05-09T20:31:00.569Z,50.17
2019-05-09T20:33:26.450Z,50.19
2019-05-09T20:35:52.399Z,50.13
2019-05-09T20:38:18.371Z,50.32
2019-05-09T20:40:44.225Z,50.18
2019-05-09T20:43:10.346Z,50.57
2019-05-09T20:45:36.220Z,50.68
2019-05-09T20:48:02.375Z,50.52
2019-05-09T20:50:28.392Z,50.44
2019-05-09T20:53:08.426Z,50.52
2019-05-09T20:55:21.961Z,50.41
2019-05-09T20:57:51.389Z,50.37
2019-05-09T21:00:15.915Z,50.39
2019-05-09T21:02:41.765Z,50.33
2019-05-09T21:05:07.873Z,50.35
2019-05-09T21:07:33.739Z,50.41
2019-05-09T21:09:59.594Z,50.40
2019-05-09T21:12:25.569Z,50.41
2019-05-09T21:14:51.450Z,50.52
2019-05-09T21:17:17.329Z,50.60
2019-05-09T21:19:43.352Z,50.45
2019-05-09T21:22:09.358Z,50.68
2019-05-09T21:24:35.216Z,50.62
2019-05-09T21:27:01.329Z,50.62
2019-05-09T21:29:27.204Z,50.50
2019-05-09T21:31:53.065Z,50.62
2019-05-09T21:34:19.048Z,50.59
2019-05-09T21:36:45.095Z,50.69
2019-05-09T21:39:10.905Z,50.82
2019-05-09T21:41:36.865Z,50.88
2019-05-09T21:44:02.868Z,50.76
2019-05-09T21:46:29.631Z,50.62
2019-05-09T21:48:55.890Z,50.79
2019-05-09T21:51:21.844Z,50.93
2019-05-09T21:53:47.806Z,50.78
2019-05-09T21:56:13.931Z,50.94
2019-05-09T21:58:39.775Z,51.05
2019-05-09T22:01:07.537Z,51.03
2019-05-09T22:03:33.518Z,50.98
2019-05-09T22:05:59.571Z,50.99
2019-05-09T22:08:25.427Z,51.01
2019-05-09T22:10:51.495Z,51.25
2019-05-09T22:13:17.342Z,51.33
2019-05-09T22:15:43.308Z,51.54
2019-05-09T22:18:09.461Z,51.72
2019-05-09T22:20:35.470Z,51.60
2019-05-09T22:23:01.446Z,51.68
2019-05-09T22:25:27.540Z,51.62
2019-05-09T22:27:53.477Z,51.59
2019-05-09T22:30:19.659Z,51.51
2019-05-09T22:32:45.729Z,51.58
2019-05-09T22:35:11.980Z,51.60
2019-05-09T22:37:37.829Z,51.71
2019-05-09T22:40:04.743Z,51.70
2019-05-09T22:42:30.598Z,51.67
2019-05-09T22:44:56.549Z,51.73
2019-05-09T22:47:22.510Z,51.81
2019-05-09T22:49:52.203Z,51.81
2019-05-09T22:52:16.171Z,51.98
2019-05-09T22:54:42.267Z,51.93
2019-05-09T22:57:08.135Z,52.27
2019-05-09T22:59:34.043Z,52.15
2019-05-09T23:02:06.299Z,52.22
2019-05-09T23:04:27.845Z,52.40
2019-05-09T23:06:53.912Z,52.38
2019-05-09T23:09:20.094Z,52.27
2019-05-09T23:11:46.056Z,52.41
2019-05-09T23:14:12.025Z,52.29
2019-05-09T23:16:39.395Z,52.33
2019-05-09T23:19:05.269Z,52.23
2019-05-09T23:21:31.116Z,52.37
2019-05-09T23:24:01.996Z,52.55
2019-05-09T23:26:28.070Z,52.50
2019-05-09T23:28:53.952Z,52.54
2019-05-09T23:31:27.944Z,52.52
2019-05-09T23:33:53.802Z,52.65
2019-05-09T23:36:19.754Z,52.77
2019-05-09T23:39:04.273Z,52.76
2019-05-09T23:41:30.232Z,52.91
2019-05-09T23:43:56.214Z,53.08
2019-05-09T23:46:22.455Z,53.10
2019-05-09T23:48:48.315Z,53.01
2019-05-09T23:51:14.159Z,52.98
2019-05-09T23:53:40.306Z,52.99
2019-05-09T23:56:24.719Z,53.31
2019-05-09T23:59:09.106Z,53.25
